createdAt,value
2023-10-08T00:02:46.619Z,84.83
2023-10-08T00:07:51.674Z,85.19
2023-10-08T00:12:57.159Z,85.13
2023-10-08T00:18:02.604Z,85.72
2023-10-08T00:23:09.062Z,85.89
2023-10-08T00:28:12.019Z,86.53
2023-10-08T00:33:16.196Z,86.53
2023-10-08T00:38:22.143Z,86.70
2023-10-08T00:43:33.543Z,86.64
2023-10-08T00:48:37.784Z,86.73
2023-10-08T00:53:41.336Z,86.75
2023-10-08T00:58:47.992Z,86.82
2023-10-08T01:03:51.525Z,87.05
2023-10-08T01:08:55.845Z,86.76
2023-10-08T01:14:00.188Z,86.68
2023-10-08T01:19:03.704Z,87.74
2023-10-08T01:24:08.226Z,88.70
2023-10-08T01:29:20.423Z,89.19
2023-10-08T01:34:29.332Z,89.87
2023-10-08T01:39:33.750Z,90.70
2023-10-08T01:44:36.890Z,90.11
2023-10-08T01:49:41.103Z,90.33
2023-10-08T01:54:45.626Z,90.15
2023-10-08T01:59:50.042Z,90.74
2023-10-08T02:04:53.207Z,91.48
2023-10-08T02:09:56.397Z,92.42
2023-10-08T02:14:59.706Z,92.73
2023-10-08T02:20:06.550Z,93.97
2023-10-08T02:25:12.873Z,93.67
2023-10-08T02:30:16.010Z,93.99
2023-10-08T02:35:20.043Z,94.94
2023-10-08T02:40:29.383Z,94.48
2023-10-08T02:45:32.390Z,94.35
2023-10-08T02:50:35.563Z,94.61
2023-10-08T02:55:45.713Z,94.46
2023-10-08T03:00:50.732Z,94.05
2023-10-08T03:05:58.239Z,94.00
2023-10-08T03:11:05.036Z,94.24
2023-10-08T03:16:10.246Z,94.56
2023-10-08T03:21:25.329Z,94.35
2023-10-08T03:26:35.258Z,94.55
2023-10-08T03:31:50.342Z,94.85
2023-10-08T03:37:01.028Z,94.52
2023-10-08T03:42:13.658Z,94.79
2023-10-08T03:47:19.994Z,94.95
2023-10-08T03:52:24.685Z,95.99
2023-10-08T03:57:42.517Z,95.42
2023-10-08T04:02:56.695Z,94.86
2023-10-08T04:08:00.058Z,94.40
2023-10-08T04:13:03.238Z,93.94
2023-10-08T04:18:06.399Z,93.93
2023-10-08T04:23:22.607Z,93.99
2023-10-08T04:28:30.192Z,92.54
2023-10-08T04:33:35.812Z,91.07
2023-10-08T04:38:41.941Z,89.53
2023-10-08T04:43:45.141Z,88.25
2023-10-08T04:48:48.270Z,88.06
2023-10-08T04:53:51.404Z,87.14
2023-10-08T04:58:54.596Z,86.91
2023-10-08T05:03:58.558Z,86.55
2023-10-08T05:09:21.079Z,86.15
2023-10-08T05:14:34.850Z,86.10
2023-10-08T05:19:42.623Z,86.00
2023-10-08T05:25:08.443Z,84.71
2023-10-08T05:30:16.658Z,85.62
2023-10-08T05:35:39.956Z,81.84
2023-10-08T05:41:00.817Z,74.82
2023-10-08T05:46:23.028Z,70.86
2023-10-08T05:51:35.585Z,66.91
2023-10-08T05:56:59.250Z,63.92
2023-10-08T06:02:22.304Z,60.27
2023-10-08T06:07:35.014Z,58.89
2023-10-08T06:12:51.239Z,56.75
2023-10-08T06:17:59.631Z,56.21
2023-10-08T06:23:08.547Z,54.27
2023-10-08T06:28:18.370Z,52.33
2023-10-08T06:33:23.469Z,53.05
2023-10-08T06:38:28.511Z,53.08
2023-10-08T06:43:31.802Z,51.50
2023-10-08T06:48:36.074Z,50.94
2023-10-08T06:53:40.174Z,50.24
2023-10-08T06:58:50.902Z,50.48
2023-10-08T07:04:05.161Z,49.55
2023-10-08T07:09:30.885Z,49.73
2023-10-08T07:14:35.316Z,49.61
2023-10-08T07:19:39.675Z,49.09
2023-10-08T07:24:46.959Z,49.39
2023-10-08T07:29:50.828Z,47.79
2023-10-08T07:34:59.271Z,48.97
2023-10-08T07:40:09.893Z,48.71
2023-10-08T07:45:19.213Z,48.62
2023-10-08T07:50:22.591Z,49.40
2023-10-08T07:55:25.768Z,48.52
2023-10-08T08:00:32.152Z,48.50
2023-10-08T08:05:36.218Z,48.98
2023-10-08T08:10:39.806Z,49.11
2023-10-08T08:15:47.799Z,49.78
2023-10-08T08:20:54.341Z,52.22
2023-10-08T08:26:08.411Z,54.17
2023-10-08T08:31:17.349Z,56.23
2023-10-08T08:36:22.107Z,57.62
2023-10-08T08:41:25.718Z,59.57
2023-10-08T08:46:36.717Z,60.44
2023-10-08T08:51:40.220Z,61.27
2023-10-08T08:56:45.019Z,61.16
2023-10-08T09:01:49.018Z,61.28
2023-10-08T09:06:52.098Z,60.14
2023-10-08T09:11:56.873Z,59.75
2023-10-08T09:17:01.930Z,60.44
2023-10-08T09:22:13.559Z,60.08
2023-10-08T09:27:20.472Z,60.36
2023-10-08T09:32:26.883Z,60.34
2023-10-08T09:37:30.416Z,59.57
2023-10-08T09:42:35.670Z,57.89
2023-10-08T09:47:44.175Z,55.90
2023-10-08T09:53:07.558Z,54.25
2023-10-08T09:58:15.364Z,54.04
2023-10-08T10:03:20.473Z,55.30
2023-10-08T10:08:26.997Z,53.04
2023-10-08T10:13:35.397Z,50.35
2023-10-08T10:18:39.326Z,51.61
2023-10-08T10:23:47.232Z,52.49
2023-10-08T10:29:10.499Z,50.69
2023-10-08T10:34:30.013Z,50.81
2023-10-08T10:39:34.878Z,50.42
2023-10-08T10:44:38.228Z,49.35
2023-10-08T10:49:55.035Z,48.76
2023-10-08T10:55:17.989Z,49.17
2023-10-08T11:00:34.028Z,50.62
2023-10-08T11:05:39.440Z,50.61
2023-10-08T11:10:54.223Z,48.91
2023-10-08T11:15:59.555Z,46.05
2023-10-08T11:21:40.090Z,47.86
2023-10-08T11:27:05.522Z,47.72
2023-10-08T11:32:13.801Z,47.78
2023-10-08T11:37:31.369Z,47.32
2023-10-08T11:42:35.872Z,47.98
2023-10-08T11:47:39.110Z,49.76
2023-10-08T11:52:45.032Z,50.00
2023-10-08T11:57:50.372Z,49.39
2023-10-08T12:02:57.235Z,47.36
2023-10-08T12:08:01.301Z,47.24
2023-10-08T12:13:07.297Z,48.04
2023-10-08T12:18:12.948Z,49.02
2023-10-08T12:23:26.553Z,49.04
2023-10-08T12:28:30.063Z,48.94
2023-10-08T12:33:33.334Z,50.48
2023-10-08T12:38:38.136Z,50.35
2023-10-08T12:43:54.289Z,49.45
2023-10-08T12:48:57.966Z,48.84
2023-10-08T12:54:08.418Z,49.02
2023-10-08T12:59:21.681Z,48.57
2023-10-08T13:04:29.583Z,49.10
2023-10-08T13:09:33.559Z,50.04
2023-10-08T13:14:37.187Z,50.70
2023-10-08T13:19:40.762Z,50.20
2023-10-08T13:24:43.980Z,51.23
2023-10-08T13:29:47.221Z,51.07
2023-10-08T13:34:50.609Z,51.42
2023-10-08T13:39:54.537Z,52.74
2023-10-08T13:45:01.359Z,52.58
2023-10-08T13:50:11.777Z,54.60
2023-10-08T13:55:15.325Z,54.76
2023-10-08T14:00:27.042Z,55.61
2023-10-08T14:05:31.059Z,56.28
2023-10-08T14:10:34.577Z,55.89
2023-10-08T14:15:45.287Z,56.96
2023-10-08T14:20:48.484Z,57.90
2023-10-08T14:25:53.265Z,59.40
2023-10-08T14:30:58.233Z,60.23
2023-10-08T14:36:19.925Z,60.78
2023-10-08T14:41:41.683Z,61.95
2023-10-08T14:46:45.810Z,62.91
2023-10-08T14:51:50.460Z,63.53
2023-10-08T14:56:54.124Z,63.33
2023-10-08T15:01:57.394Z,63.14
2023-10-08T15:07:00.607Z,63.02
2023-10-08T15:12:04.137Z,64.01
2023-10-08T15:17:07.308Z,64.80
2023-10-08T15:22:11.168Z,65.19
2023-10-08T15:27:14.457Z,65.72
2023-10-08T15:32:17.675Z,65.41
2023-10-08T15:37:20.740Z,65.55
2023-10-08T15:42:24.004Z,66.44
2023-10-08T15:47:28.677Z,67.89
2023-10-08T15:52:32.872Z,68.90
2023-10-08T15:57:36.091Z,69.62
2023-10-08T16:02:39.271Z,70.68
2023-10-08T16:07:42.625Z,71.59
2023-10-08T16:12:45.741Z,71.68
2023-10-08T16:17:51.055Z,72.46
2023-10-08T16:22:54.294Z,72.82
2023-10-08T16:27:57.614Z,73.78
2023-10-08T16:33:01.549Z,74.73
2023-10-08T16:38:06.493Z,74.76
2023-10-08T16:43:12.981Z,74.85
2023-10-08T16:48:19.358Z,74.97
2023-10-08T16:53:22.881Z,75.95
2023-10-08T16:58:26.098Z,75.63
2023-10-08T17:03:29.519Z,75.78
2023-10-08T17:08:34.666Z,75.89
2023-10-08T17:13:42.730Z,76.82
2023-10-08T17:18:46.107Z,77.52
2023-10-08T17:23:49.552Z,77.68
2023-10-08T17:28:52.959Z,78.27
2023-10-08T17:33:56.433Z,78.28
2023-10-08T17:39:18.104Z,79.34
2023-10-08T17:44:25.618Z,80.21
2023-10-08T17:49:29.240Z,80.96
2023-10-08T17:54:34.700Z,80.81
2023-10-08T17:59:39.363Z,81.12
2023-10-08T18:04:43.074Z,81.18
2023-10-08T18:09:48.779Z,81.58
2023-10-08T18:14:52.610Z,82.21
2023-10-08T18:19:58.141Z,83.64
2023-10-08T18:25:01.754Z,84.23
2023-10-08T18:30:09.589Z,85.14
2023-10-08T18:35:16.175Z,84.75
2023-10-08T18:40:19.989Z,84.67
2023-10-08T18:45:23.657Z,85.40
2023-10-08T18:50:27.242Z,85.71
2023-10-08T18:55:50.263Z,85.83
2023-10-08T19:00:55.491Z,86.31
2023-10-08T19:05:59.049Z,86.63
2023-10-08T19:11:03.641Z,87.76
2023-10-08T19:16:14.291Z,87.50
2023-10-08T19:21:27.750Z,86.87
2023-10-08T19:26:31.399Z,86.24
2023-10-08T19:31:34.790Z,85.83
2023-10-08T19:36:37.922Z,85.53
2023-10-08T19:41:41.128Z,85.69
2023-10-08T19:46:44.287Z,85.83
2023-10-08T19:51:47.551Z,86.04
2023-10-08T19:56:50.812Z,86.06
2023-10-08T20:01:54.114Z,86.15
2023-10-08T20:06:57.390Z,86.26
2023-10-08T20:12:00.533Z,87.23
2023-10-08T20:17:09.958Z,87.92
2023-10-08T20:22:13.778Z,89.39
2023-10-08T20:27:18.775Z,89.70
2023-10-08T20:32:21.852Z,90.25
2023-10-08T20:37:26.509Z,91.54
2023-10-08T20:42:32.156Z,92.13
2023-10-08T20:47:38.351Z,92.35
2023-10-08T20:52:41.859Z,92.82
2023-10-08T20:57:47.272Z,93.21
2023-10-08T21:02:50.521Z,93.59
2023-10-08T21:07:54.082Z,94.15
2023-10-08T21:12:57.908Z,94.50
2023-10-08T21:18:01.425Z,94.75
2023-10-08T21:23:05.669Z,95.11
2023-10-08T21:28:10.613Z,95.56
2023-10-08T21:33:14.255Z,96.16
2023-10-08T21:38:18.704Z,96.68
2023-10-08T21:43:21.753Z,97.35
2023-10-08T21:48:25.230Z,97.71
2023-10-08T21:53:28.376Z,98.48
2023-10-08T21:58:31.386Z,98.80
2023-10-08T22:03:35.183Z,98.96
2023-10-08T22:08:39.264Z,99.31
2023-10-08T22:13:43.367Z,99.65
2023-10-08T22:18:52.399Z,99.93
2023-10-08T22:23:55.595Z,100.00
2023-10-08T22:28:58.893Z,100.00
2023-10-08T22:34:16.912Z,100.00
2023-10-08T22:39:22.783Z,100.00
2023-10-08T22:44:28.588Z,100.00
2023-10-08T22:49:33.508Z,100.00
2023-10-08T22:54:38.387Z,100.00
2023-10-08T22:59:41.686Z,100.00
2023-10-08T23:04:45.598Z,100.00
2023-10-08T23:09:49.857Z,100.00
2023-10-08T23:14:54.926Z,100.00
2023-10-08T23:19:58.105Z,100.00
2023-10-08T23:25:04.806Z,100.00
2023-10-08T23:30:11.267Z,100.00
2023-10-08T23:35:18.291Z,100.00
2023-10-08T23:40:32.426Z,100.00
2023-10-08T23:45:42.429Z,100.00
2023-10-08T23:50:46.608Z,100.00
2023-10-08T23:56:07.810Z,100.00
